sensor_id;sensor_type;location;lat;lon;timestamp;pressure;altitude;pressure_sealevel;temperature;humidity
56825;BME280;42705;50.326;18.772;2023-03-29T00:05:18;99141.20;;;-3.50;55.08
56825;BME280;42705;50.326;18.772;2023-03-29T00:10:43;99136.50;;;-3.46;55.19
56825;BME280;42705;50.326;18.772;2023-03-29T00:16:09;99142.61;;;-3.44;55.18
56825;BME280;42705;50.326;18.772;2023-03-29T00:21:30;99140.76;;;-3.45;55.26
56825;BME280;42705;50.326;18.772;2023-03-29T00:26:52;99138.77;;;-3.49;55.55
56825;BME280;42705;50.326;18.772;2023-03-29T00:32:14;99128.48;;;-3.47;55.57
56825;BME280;42705;50.326;18.772;2023-03-29T00:37:36;99132.02;;;-3.45;55.66
56825;BME280;42705;50.326;18.772;2023-03-29T00:42:58;99127.94;;;-3.45;56.00
56825;BME280;42705;50.326;18.772;2023-03-29T00:48:22;99121.86;;;-3.49;56.14
56825;BME280;42705;50.326;18.772;2023-03-29T00:53:46;99117.81;;;-3.51;56.33
56825;BME280;42705;50.326;18.772;2023-03-29T00:59:13;99119.73;;;-3.52;56.41
56825;BME280;42705;50.326;18.772;2023-03-29T01:04:37;99117.02;;;-3.54;56.68
56825;BME280;42705;50.326;18.772;2023-03-29T01:10:07;99111.08;;;-3.63;56.73
56825;BME280;42705;50.326;18.772;2023-03-29T01:15:31;99105.98;;;-3.72;57.00
56825;BME280;42705;50.326;18.772;2023-03-29T01:26:40;99100.77;;;-3.68;57.83
56825;BME280;42705;50.326;18.772;2023-03-29T01:32:06;99093.83;;;-3.63;58.19
56825;BME280;42705;50.326;18.772;2023-03-29T01:37:34;99089.01;;;-3.61;58.44
56825;BME280;42705;50.326;18.772;2023-03-29T01:43:08;99082.23;;;-3.63;58.72
56825;BME280;42705;50.326;18.772;2023-03-29T01:54:02;99079.32;;;-3.71;59.06
56825;BME280;42705;50.326;18.772;2023-03-29T01:59:26;99078.39;;;-3.75;59.51
56825;BME280;42705;50.326;18.772;2023-03-29T02:04:52;99081.72;;;-3.79;59.64
56825;BME280;42705;50.326;18.772;2023-03-29T02:10:14;99083.47;;;-3.81;59.80
56825;BME280;42705;50.326;18.772;2023-03-29T02:15:37;99081.44;;;-3.82;59.94
56825;BME280;42705;50.326;18.772;2023-03-29T02:21:00;99084.26;;;-3.78;60.21
56825;BME280;42705;50.326;18.772;2023-03-29T02:26:22;99089.29;;;-3.74;60.46
56825;BME280;42705;50.326;18.772;2023-03-29T02:31:48;99082.48;;;-3.74;60.56
56825;BME280;42705;50.326;18.772;2023-03-29T02:37:13;99085.09;;;-3.77;60.64
56825;BME280;42705;50.326;18.772;2023-03-29T02:42:36;99083.09;;;-3.79;60.87
56825;BME280;42705;50.326;18.772;2023-03-29T02:48:02;99087.30;;;-3.76;60.94
56825;BME280;42705;50.326;18.772;2023-03-29T02:53:27;99085.73;;;-3.74;60.98
56825;BME280;42705;50.326;18.772;2023-03-29T02:58:51;99084.52;;;-3.74;61.14
56825;BME280;42705;50.326;18.772;2023-03-29T03:04:13;99084.31;;;-3.65;61.28
56825;BME280;42705;50.326;18.772;2023-03-29T03:09:35;99084.32;;;-3.50;61.45
56825;BME280;42705;50.326;18.772;2023-03-29T03:14:57;99087.51;;;-3.40;61.25
56825;BME280;42705;50.326;18.772;2023-03-29T03:20:19;99093.63;;;-3.39;61.29
56825;BME280;42705;50.326;18.772;2023-03-29T03:25:44;99088.02;;;-3.33;61.30
56825;BME280;42705;50.326;18.772;2023-03-29T03:31:06;99084.52;;;-3.30;61.43
56825;BME280;42705;50.326;18.772;2023-03-29T03:36:47;99077.95;;;-3.33;61.40
56825;BME280;42705;50.326;18.772;2023-03-29T03:42:09;99077.06;;;-3.33;61.56
56825;BME280;42705;50.326;18.772;2023-03-29T03:47:36;99071.31;;;-3.28;61.62
56825;BME280;42705;50.326;18.772;2023-03-29T03:53:10;99078.38;;;-3.30;61.41
56825;BME280;42705;50.326;18.772;2023-03-29T03:58:51;99078.76;;;-3.39;61.48
56825;BME280;42705;50.326;18.772;2023-03-29T04:04:14;99085.91;;;-3.45;61.51
56825;BME280;42705;50.326;18.772;2023-03-29T04:09:47;99082.20;;;-3.47;61.62
56825;BME280;42705;50.326;18.772;2023-03-29T04:15:28;99079.29;;;-3.47;61.92
56825;BME280;42705;50.326;18.772;2023-03-29T04:20:57;99072.95;;;-3.45;62.03
56825;BME280;42705;50.326;18.772;2023-03-29T04:26:20;99067.38;;;-3.49;62.12
56825;BME280;42705;50.326;18.772;2023-03-29T04:31:47;99064.52;;;-3.51;62.20
56825;BME280;42705;50.326;18.772;2023-03-29T04:37:30;99058.35;;;-3.43;62.35
56825;BME280;42705;50.326;18.772;2023-03-29T04:42:53;99054.30;;;-3.38;62.22
56825;BME280;42705;50.326;18.772;2023-03-29T04:48:16;99058.63;;;-3.40;62.16
56825;BME280;42705;50.326;18.772;2023-03-29T04:53:39;99058.41;;;-3.38;62.16
56825;BME280;42705;50.326;18.772;2023-03-29T04:59:01;99060.10;;;-3.37;62.20
56825;BME280;42705;50.326;18.772;2023-03-29T05:04:23;99062.61;;;-3.28;62.38
56825;BME280;42705;50.326;18.772;2023-03-29T05:09:58;99060.17;;;-3.19;62.37
56825;BME280;42705;50.326;18.772;2023-03-29T05:15:21;99065.35;;;-3.08;62.38
56825;BME280;42705;50.326;18.772;2023-03-29T05:20:44;99072.81;;;-2.98;62.17
56825;BME280;42705;50.326;18.772;2023-03-29T05:26:12;99074.34;;;-2.98;61.99
56825;BME280;42705;50.326;18.772;2023-03-29T05:31:36;99070.32;;;-3.08;61.84
56825;BME280;42705;50.326;18.772;2023-03-29T05:36:59;99069.74;;;-3.19;61.71
56825;BME280;42705;50.326;18.772;2023-03-29T05:42:25;99071.84;;;-3.21;62.05
56825;BME280;42705;50.326;18.772;2023-03-29T05:47:51;99069.33;;;-3.16;62.25
56825;BME280;42705;50.326;18.772;2023-03-29T05:53:13;99070.26;;;-3.12;62.26
56825;BME280;42705;50.326;18.772;2023-03-29T05:58:35;99068.77;;;-3.08;62.30
56825;BME280;42705;50.326;18.772;2023-03-29T06:03:57;99074.08;;;-3.08;62.32
56825;BME280;42705;50.326;18.772;2023-03-29T06:09:24;99077.04;;;-2.97;62.47
56825;BME280;42705;50.326;18.772;2023-03-29T06:14:56;99074.38;;;-2.86;62.41
56825;BME280;42705;50.326;18.772;2023-03-29T06:20:30;99067.82;;;-2.64;62.73
56825;BME280;42705;50.326;18.772;2023-03-29T06:25:57;99070.96;;;-2.48;62.38
56825;BME280;42705;50.326;18.772;2023-03-29T06:31:20;99072.14;;;-2.41;62.10
56825;BME280;42705;50.326;18.772;2023-03-29T06:36:45;99077.44;;;-2.29;62.25
56825;BME280;42705;50.326;18.772;2023-03-29T06:42:07;99078.02;;;-2.13;61.87
56825;BME280;42705;50.326;18.772;2023-03-29T06:47:53;99074.98;;;-1.97;61.68
56825;BME280;42705;50.326;18.772;2023-03-29T06:53:15;99072.34;;;-1.88;61.40
56825;BME280;42705;50.326;18.772;2023-03-29T06:58:40;99072.19;;;-1.72;61.07
56825;BME280;42705;50.326;18.772;2023-03-29T07:04:12;99081.13;;;-1.62;60.88
56825;BME280;42705;50.326;18.772;2023-03-29T07:09:55;99076.80;;;-1.49;60.70
56825;BME280;42705;50.326;18.772;2023-03-29T07:15:26;99080.48;;;-1.25;60.65
56825;BME280;42705;50.326;18.772;2023-03-29T07:21:07;99078.08;;;-1.04;59.96
56825;BME280;42705;50.326;18.772;2023-03-29T07:26:29;99081.31;;;-0.93;59.13
56825;BME280;42705;50.326;18.772;2023-03-29T07:31:51;99080.46;;;-0.78;58.48
56825;BME280;42705;50.326;18.772;2023-03-29T07:37:32;99078.95;;;-0.64;58.00
56825;BME280;42705;50.326;18.772;2023-03-29T07:42:55;99074.91;;;-0.47;58.17
56825;BME280;42705;50.326;18.772;2023-03-29T07:48:17;99072.20;;;-0.23;58.02
56825;BME280;42705;50.326;18.772;2023-03-29T07:53:53;99075.59;;;-0.04;57.47
56825;BME280;42705;50.326;18.772;2023-03-29T07:59:37;99065.55;;;0.08;56.88
56825;BME280;42705;50.326;18.772;2023-03-29T08:05:03;99071.02;;;0.22;56.73
56825;BME280;42705;50.326;18.772;2023-03-29T08:10:43;99069.08;;;0.37;56.13
56825;BME280;42705;50.326;18.772;2023-03-29T08:16:13;99064.15;;;0.57;56.00
56825;BME280;42705;50.326;18.772;2023-03-29T08:21:39;99062.16;;;0.77;55.28
56825;BME280;42705;50.326;18.772;2023-03-29T08:27:02;99054.05;;;0.98;55.34
56825;BME280;42705;50.326;18.772;2023-03-29T08:32:24;99050.20;;;1.12;54.36
56825;BME280;42705;50.326;18.772;2023-03-29T08:37:47;99043.23;;;1.22;54.06
56825;BME280;42705;50.326;18.772;2023-03-29T08:49:04;99034.34;;;1.57;53.29
56825;BME280;42705;50.326;18.772;2023-03-29T08:54:30;99030.66;;;1.81;53.06
56825;BME280;42705;50.326;18.772;2023-03-29T09:00:00;99025.10;;;2.08;52.49
56825;BME280;42705;50.326;18.772;2023-03-29T09:05:34;99021.78;;;2.31;51.40
56825;BME280;42705;50.326;18.772;2023-03-29T09:28:03;99003.32;;;2.85;47.69
56825;BME280;42705;50.326;18.772;2023-03-29T09:39:35;98997.48;;;3.18;47.32
56825;BME280;42705;50.326;18.772;2023-03-29T09:45:04;98995.36;;;3.23;45.88
56825;BME280;42705;50.326;18.772;2023-03-29T09:50:35;98995.34;;;3.27;44.38
56825;BME280;42705;50.326;18.772;2023-03-29T09:56:00;98994.04;;;3.28;42.35
56825;BME280;42705;50.326;18.772;2023-03-29T10:01:45;98989.59;;;3.34;42.38
56825;BME280;42705;50.326;18.772;2023-03-29T10:07:11;98983.95;;;3.46;41.98
56825;BME280;42705;50.326;18.772;2023-03-29T10:12:37;98987.10;;;3.55;41.55
56825;BME280;42705;50.326;18.772;2023-03-29T10:18:00;98977.19;;;3.69;41.76
56825;BME280;42705;50.326;18.772;2023-03-29T10:23:28;98984.62;;;4.01;39.81
56825;BME280;42705;50.326;18.772;2023-03-29T10:28:50;98972.71;;;4.16;38.89
56825;BME280;42705;50.326;18.772;2023-03-29T10:34:14;98967.91;;;4.49;39.43
56825;BME280;42705;50.326;18.772;2023-03-29T10:39:38;98961.46;;;4.77;39.15
56825;BME280;42705;50.326;18.772;2023-03-29T10:45:00;98962.86;;;4.95;38.21
56825;BME280;42705;50.326;18.772;2023-03-29T10:50:22;98953.12;;;4.96;37.80
56825;BME280;42705;50.326;18.772;2023-03-29T10:55:54;98939.48;;;5.10;38.42
56825;BME280;42705;50.326;18.772;2023-03-29T11:06:59;98925.92;;;5.30;38.96
56825;BME280;42705;50.326;18.772;2023-03-29T11:12:30;98912.63;;;5.35;39.05
56825;BME280;42705;50.326;18.772;2023-03-29T11:45:53;98866.86;;;7.91;38.81
56825;BME280;42705;50.326;18.772;2023-03-29T11:51:18;98857.98;;;8.01;38.73
56825;BME280;42705;50.326;18.772;2023-03-29T11:56:43;98846.91;;;8.30;38.88
56825;BME280;42705;50.326;18.772;2023-03-29T12:07:51;98838.73;;;9.29;38.88
56825;BME280;42705;50.326;18.772;2023-03-29T12:13:15;98829.37;;;9.68;37.71
56825;BME280;42705;50.326;18.772;2023-03-29T12:18:40;98823.79;;;10.10;37.56
56825;BME280;42705;50.326;18.772;2023-03-29T12:24:02;98820.53;;;10.10;36.56
56825;BME280;42705;50.326;18.772;2023-03-29T12:40:24;98805.11;;;9.74;35.50
56825;BME280;42705;50.326;18.772;2023-03-29T12:46:18;98798.58;;;9.69;35.00
56825;BME280;42705;50.326;18.772;2023-03-29T12:51:42;98788.67;;;10.30;34.54
56825;BME280;42705;50.326;18.772;2023-03-29T12:57:20;98775.54;;;11.87;34.22
56825;BME280;42705;50.326;18.772;2023-03-29T13:02:42;98774.61;;;13.01;32.68
56825;BME280;42705;50.326;18.772;2023-03-29T13:08:26;98771.20;;;12.16;32.44
56825;BME280;42705;50.326;18.772;2023-03-29T13:13:48;98769.60;;;11.75;32.40
56825;BME280;42705;50.326;18.772;2023-03-29T13:36:02;98756.14;;;11.20;32.29
56825;BME280;42705;50.326;18.772;2023-03-29T13:47:11;98717.98;;;16.39;29.09
56825;BME280;42705;50.326;18.772;2023-03-29T13:52:36;98707.90;;;20.14;26.03
56825;BME280;42705;50.326;18.772;2023-03-29T14:03:25;98703.92;;;22.04;23.79
56825;BME280;42705;50.326;18.772;2023-03-29T14:08:50;98698.38;;;21.63;23.92
56825;BME280;42705;50.326;18.772;2023-03-29T14:14:12;98695.97;;;20.56;24.18
56825;BME280;42705;50.326;18.772;2023-03-29T14:19:35;98701.09;;;19.90;23.50
56825;BME280;42705;50.326;18.772;2023-03-29T14:25:00;98698.05;;;17.54;24.51
56825;BME280;42705;50.326;18.772;2023-03-29T14:30:26;98701.05;;;15.95;25.15
56825;BME280;42705;50.326;18.772;2023-03-29T14:35:48;98685.58;;;15.98;25.79
56825;BME280;42705;50.326;18.772;2023-03-29T14:41:11;98677.71;;;15.96;25.94
56825;BME280;42705;50.326;18.772;2023-03-29T14:46:33;98666.67;;;15.87;26.23
56825;BME280;42705;50.326;18.772;2023-03-29T14:51:56;98674.02;;;14.44;27.14
56825;BME280;42705;50.326;18.772;2023-03-29T14:57:18;98661.48;;;15.11;27.02
56825;BME280;42705;50.326;18.772;2023-03-29T15:02:48;98652.91;;;16.66;26.33
56825;BME280;42705;50.326;18.772;2023-03-29T15:08:14;98639.38;;;17.34;25.74
56825;BME280;42705;50.326;18.772;2023-03-29T15:13:38;98637.76;;;17.78;25.04
56825;BME280;42705;50.326;18.772;2023-03-29T15:19:01;98645.33;;;17.26;24.46
56825;BME280;42705;50.326;18.772;2023-03-29T15:24:27;98646.42;;;16.93;24.63
56825;BME280;42705;50.326;18.772;2023-03-29T15:29:49;98643.08;;;15.68;24.59
56825;BME280;42705;50.326;18.772;2023-03-29T15:35:21;98639.91;;;14.85;25.22
56825;BME280;42705;50.326;18.772;2023-03-29T15:40:43;98642.03;;;14.46;25.77
56825;BME280;42705;50.326;18.772;2023-03-29T15:46:06;98641.51;;;13.91;26.64
56825;BME280;42705;50.326;18.772;2023-03-29T15:51:27;98632.85;;;12.84;27.27
56825;BME280;42705;50.326;18.772;2023-03-29T15:56:54;98630.45;;;11.97;28.25
56825;BME280;42705;50.326;18.772;2023-03-29T16:02:17;98626.78;;;11.04;29.63
56825;BME280;42705;50.326;18.772;2023-03-29T16:07:42;98630.86;;;10.50;30.77
56825;BME280;42705;50.326;18.772;2023-03-29T16:13:04;98620.29;;;9.86;31.45
56825;BME280;42705;50.326;18.772;2023-03-29T16:18:26;98618.91;;;9.32;31.74
56825;BME280;42705;50.326;18.772;2023-03-29T16:23:48;98620.12;;;8.84;32.53
56825;BME280;42705;50.326;18.772;2023-03-29T16:29:09;98621.39;;;8.46;33.50
56825;BME280;42705;50.326;18.772;2023-03-29T16:34:31;98626.60;;;8.15;33.79
56825;BME280;42705;50.326;18.772;2023-03-29T16:39:54;98633.35;;;7.95;34.24
56825;BME280;42705;50.326;18.772;2023-03-29T16:45:16;98632.85;;;7.77;34.60
56825;BME280;42705;50.326;18.772;2023-03-29T16:50:39;98634.95;;;7.74;34.88
56825;BME280;42705;50.326;18.772;2023-03-29T16:56:02;98636.20;;;7.87;34.90
56825;BME280;42705;50.326;18.772;2023-03-29T17:01:24;98643.51;;;7.81;35.14
56825;BME280;42705;50.326;18.772;2023-03-29T17:06:45;98643.89;;;7.57;35.43
56825;BME280;42705;50.326;18.772;2023-03-29T17:12:07;98647.45;;;7.32;35.70
56825;BME280;42705;50.326;18.772;2023-03-29T17:17:29;98647.83;;;7.11;36.19
56825;BME280;42705;50.326;18.772;2023-03-29T17:22:51;98638.59;;;6.94;36.66
56825;BME280;42705;50.326;18.772;2023-03-29T17:28:16;98641.59;;;6.82;36.94
56825;BME280;42705;50.326;18.772;2023-03-29T17:33:38;98649.27;;;6.71;37.18
56825;BME280;42705;50.326;18.772;2023-03-29T17:39:00;98653.30;;;6.63;37.32
56825;BME280;42705;50.326;18.772;2023-03-29T17:44:22;98661.80;;;6.58;37.54
56825;BME280;42705;50.326;18.772;2023-03-29T17:49:44;98655.77;;;6.53;37.69
56825;BME280;42705;50.326;18.772;2023-03-29T17:55:07;98648.89;;;6.47;37.86
56825;BME280;42705;50.326;18.772;2023-03-29T18:00:34;98654.20;;;6.43;38.14
56825;BME280;42705;50.326;18.772;2023-03-29T18:05:56;98665.89;;;6.35;38.40
56825;BME280;42705;50.326;18.772;2023-03-29T18:11:20;98667.33;;;6.26;38.69
56825;BME280;42705;50.326;18.772;2023-03-29T18:16:45;98671.09;;;6.17;38.97
56825;BME280;42705;50.326;18.772;2023-03-29T18:22:07;98675.31;;;6.06;39.21
56825;BME280;42705;50.326;18.772;2023-03-29T18:27:29;98679.23;;;5.97;39.45
56825;BME280;42705;50.326;18.772;2023-03-29T18:32:51;98672.98;;;5.89;39.76
56825;BME280;42705;50.326;18.772;2023-03-29T18:38:13;98663.21;;;5.82;39.95
56825;BME280;42705;50.326;18.772;2023-03-29T18:43:35;98658.80;;;5.76;40.10
56825;BME280;42705;50.326;18.772;2023-03-29T18:48:59;98661.30;;;5.70;40.34
56825;BME280;42705;50.326;18.772;2023-03-29T18:54:22;98657.09;;;5.62;40.52
56825;BME280;42705;50.326;18.772;2023-03-29T18:59:44;98652.80;;;5.54;41.00
56825;BME280;42705;50.326;18.772;2023-03-29T19:05:07;98655.89;;;5.46;41.22
56825;BME280;42705;50.326;18.772;2023-03-29T19:10:39;98663.74;;;5.40;41.57
56825;BME280;42705;50.326;18.772;2023-03-29T19:16:02;98668.02;;;5.33;41.83
56825;BME280;42705;50.326;18.772;2023-03-29T19:21:25;98673.59;;;5.27;42.29
56825;BME280;42705;50.326;18.772;2023-03-29T19:26:48;98665.34;;;5.21;42.51
56825;BME280;42705;50.326;18.772;2023-03-29T19:32:12;98666.36;;;5.19;42.72
56825;BME280;42705;50.326;18.772;2023-03-29T19:37:34;98662.31;;;5.15;43.11
56825;BME280;42705;50.326;18.772;2023-03-29T19:42:56;98654.73;;;5.11;43.21
56825;BME280;42705;50.326;18.772;2023-03-29T19:48:18;98657.29;;;5.06;43.62
56825;BME280;42705;50.326;18.772;2023-03-29T19:53:40;98651.59;;;5.01;43.61
56825;BME280;42705;50.326;18.772;2023-03-29T19:59:03;98649.54;;;5.03;44.09
56825;BME280;42705;50.326;18.772;2023-03-29T20:04:24;98654.63;;;5.07;43.90
56825;BME280;42705;50.326;18.772;2023-03-29T20:09:46;98646.72;;;5.06;43.85
56825;BME280;42705;50.326;18.772;2023-03-29T20:15:09;98643.97;;;5.03;44.21
56825;BME280;42705;50.326;18.772;2023-03-29T20:20:31;98641.39;;;5.01;44.10
56825;BME280;42705;50.326;18.772;2023-03-29T20:25:56;98632.58;;;4.95;44.27
56825;BME280;42705;50.326;18.772;2023-03-29T20:31:19;98633.56;;;4.90;44.46
56825;BME280;42705;50.326;18.772;2023-03-29T20:36:41;98632.66;;;4.83;45.16
56825;BME280;42705;50.326;18.772;2023-03-29T20:42:03;98623.22;;;4.79;45.60
56825;BME280;42705;50.326;18.772;2023-03-29T20:47:27;98633.42;;;4.76;46.01
56825;BME280;42705;50.326;18.772;2023-03-29T20:52:49;98632.23;;;4.73;46.36
56825;BME280;42705;50.326;18.772;2023-03-29T20:58:12;98629.49;;;4.70;46.84
56825;BME280;42705;50.326;18.772;2023-03-29T21:03:35;98622.36;;;4.68;46.84
56825;BME280;42705;50.326;18.772;2023-03-29T21:08:57;98624.58;;;4.71;47.41
56825;BME280;42705;50.326;18.772;2023-03-29T21:14:19;98621.86;;;4.76;47.72
56825;BME280;42705;50.326;18.772;2023-03-29T21:19:42;98613.84;;;4.79;47.76
56825;BME280;42705;50.326;18.772;2023-03-29T21:25:05;98607.21;;;4.83;47.95
56825;BME280;42705;50.326;18.772;2023-03-29T21:30:28;98609.36;;;4.85;48.34
56825;BME280;42705;50.326;18.772;2023-03-29T21:35:51;98595.50;;;4.87;48.51
56825;BME280;42705;50.326;18.772;2023-03-29T21:41:13;98589.55;;;4.88;48.99
56825;BME280;42705;50.326;18.772;2023-03-29T21:46:35;98591.68;;;4.90;48.99
56825;BME280;42705;50.326;18.772;2023-03-29T21:51:57;98584.63;;;4.92;49.16
56825;BME280;42705;50.326;18.772;2023-03-29T21:57:19;98588.73;;;4.93;49.65
56825;BME280;42705;50.326;18.772;2023-03-29T22:02:41;98582.59;;;4.94;49.80
56825;BME280;42705;50.326;18.772;2023-03-29T22:08:04;98585.33;;;4.95;50.02
56825;BME280;42705;50.326;18.772;2023-03-29T22:13:27;98579.39;;;4.96;50.32
56825;BME280;42705;50.326;18.772;2023-03-29T22:18:50;98571.70;;;4.97;50.56
56825;BME280;42705;50.326;18.772;2023-03-29T22:24:13;98569.47;;;4.97;50.53
56825;BME280;42705;50.326;18.772;2023-03-29T22:29:36;98567.47;;;4.95;50.89
56825;BME280;42705;50.326;18.772;2023-03-29T22:34:58;98562.66;;;4.95;51.05
56825;BME280;42705;50.326;18.772;2023-03-29T22:40:20;98565.59;;;4.95;51.35
56825;BME280;42705;50.326;18.772;2023-03-29T22:45:42;98565.02;;;4.96;51.56
56825;BME280;42705;50.326;18.772;2023-03-29T22:51:05;98559.40;;;4.97;51.73
56825;BME280;42705;50.326;18.772;2023-03-29T22:56:27;98561.37;;;4.99;51.95
56825;BME280;42705;50.326;18.772;2023-03-29T23:01:49;98558.33;;;5.00;51.92
56825;BME280;42705;50.326;18.772;2023-03-29T23:07:12;98560.16;;;5.01;52.45
56825;BME280;42705;50.326;18.772;2023-03-29T23:12:34;98558.67;;;5.00;52.82
56825;BME280;42705;50.326;18.772;2023-03-29T23:17:56;98552.90;;;4.98;53.05
56825;BME280;42705;50.326;18.772;2023-03-29T23:23:18;98552.92;;;4.96;53.46
56825;BME280;42705;50.326;18.772;2023-03-29T23:28:41;98557.66;;;4.95;53.89
56825;BME280;42705;50.326;18.772;2023-03-29T23:34:03;98553.39;;;4.93;54.12
56825;BME280;42705;50.326;18.772;2023-03-29T23:39:25;98556.77;;;4.92;54.46
56825;BME280;42705;50.326;18.772;2023-03-29T23:44:47;98554.09;;;4.91;54.77
56825;BME280;42705;50.326;18.772;2023-03-29T23:50:10;98548.15;;;4.89;55.09
56825;BME280;42705;50.326;18.772;2023-03-29T23:55:33;98547.70;;;4.88;55.60
